createdAt,value
2018-12-05T00:01:31.671Z,9.60
2018-12-05T00:04:01.735Z,10.25
2018-12-05T00:06:31.037Z,10.00
2018-12-05T00:09:00.173Z,9.93
2018-12-05T00:11:29.461Z,9.27
2018-12-05T00:13:58.710Z,8.70
2018-12-05T00:16:27.986Z,9.10
2018-12-05T00:18:57.181Z,9.57
2018-12-05T00:21:26.435Z,9.33
2018-12-05T00:23:55.674Z,10.10
2018-12-05T00:26:24.899Z,10.35
2018-12-05T00:28:54.125Z,9.23
2018-12-05T00:31:23.341Z,10.53
2018-12-05T00:33:52.629Z,9.17
2018-12-05T00:36:24.730Z,10.93
2018-12-05T00:38:53.929Z,8.50
2018-12-05T00:41:23.226Z,9.23
2018-12-05T00:43:52.513Z,9.60
2018-12-05T00:46:21.765Z,7.50
2018-12-05T00:48:50.966Z,9.87
2018-12-05T00:51:20.261Z,9.00
2018-12-05T00:53:49.507Z,8.90
2018-12-05T00:56:18.776Z,8.87
2018-12-05T00:58:48.041Z,9.07
2018-12-05T01:01:17.841Z,9.30
2018-12-05T01:03:47.793Z,8.17
2018-12-05T01:06:17.685Z,6.60
2018-12-05T01:08:46.933Z,7.67
2018-12-05T01:11:16.829Z,6.73
2018-12-05T01:13:46.087Z,7.30
2018-12-05T01:16:15.856Z,7.43
2018-12-05T01:18:45.046Z,6.90
2018-12-05T01:21:14.582Z,7.37
2018-12-05T01:23:43.767Z,7.83
2018-12-05T01:26:13.152Z,7.80
2018-12-05T01:28:42.425Z,7.20
2018-12-05T01:31:12.689Z,7.72
2018-12-05T01:33:41.912Z,6.97
2018-12-05T01:36:11.264Z,6.83
2018-12-05T01:38:43.485Z,7.83
2018-12-05T01:41:13.193Z,8.00
2018-12-05T01:43:47.315Z,7.40
2018-12-05T01:46:16.607Z,7.45
2018-12-05T01:48:45.875Z,7.37
2018-12-05T01:51:15.717Z,6.70
2018-12-05T01:53:45.721Z,6.67
2018-12-05T01:56:15.371Z,7.30
2018-12-05T01:58:44.654Z,6.80
2018-12-05T02:01:14.038Z,5.80
2018-12-05T02:03:43.346Z,6.70
2018-12-05T02:06:12.582Z,6.63
2018-12-05T02:08:41.875Z,6.43
2018-12-05T02:11:11.184Z,7.60
2018-12-05T02:13:40.413Z,7.30
2018-12-05T02:16:09.642Z,8.37
2018-12-05T02:18:38.881Z,8.73
2018-12-05T02:21:08.188Z,8.48
2018-12-05T02:23:37.545Z,8.97
2018-12-05T02:26:06.845Z,9.07
2018-12-05T02:28:36.074Z,9.00
2018-12-05T02:31:05.361Z,8.87
2018-12-05T02:33:34.539Z,8.23
2018-12-05T02:36:06.710Z,10.00
2018-12-05T02:38:35.974Z,8.38
2018-12-05T02:41:05.239Z,9.67
2018-12-05T02:43:34.469Z,9.10
2018-12-05T02:46:03.806Z,9.50
2018-12-05T02:48:33.072Z,8.90
2018-12-05T02:51:02.333Z,8.73
2018-12-05T02:53:31.532Z,11.30
2018-12-05T02:56:00.735Z,9.65
2018-12-05T02:58:29.956Z,9.13
2018-12-05T03:00:59.315Z,8.63
2018-12-05T03:03:28.531Z,9.00
2018-12-05T03:06:00.783Z,9.07
2018-12-05T03:08:30.065Z,9.13
2018-12-05T03:10:59.385Z,7.73
2018-12-05T03:13:28.597Z,7.77
2018-12-05T03:15:57.897Z,6.43
2018-12-05T03:18:27.122Z,6.93
2018-12-05T03:20:56.395Z,7.40
2018-12-05T03:23:25.600Z,7.50
2018-12-05T03:25:54.859Z,8.53
2018-12-05T03:28:24.110Z,7.00
2018-12-05T03:30:53.437Z,6.70
2018-12-05T03:33:22.660Z,7.90
2018-12-05T03:35:51.931Z,6.73
2018-12-05T03:38:21.214Z,7.17
2018-12-05T03:40:50.458Z,7.77
2018-12-05T03:43:19.718Z,6.33
2018-12-05T03:45:48.953Z,6.20
2018-12-05T03:48:18.426Z,5.70
2018-12-05T03:50:47.767Z,6.33
2018-12-05T03:53:17.582Z,6.53
2018-12-05T03:55:46.818Z,5.77
2018-12-05T03:58:16.143Z,5.70
2018-12-05T04:00:45.406Z,6.70
2018-12-05T04:03:14.985Z,5.60
2018-12-05T04:05:44.294Z,5.90
2018-12-05T04:08:13.531Z,5.55
2018-12-05T04:10:42.811Z,6.70
2018-12-05T04:13:12.245Z,7.30
2018-12-05T04:15:41.521Z,6.67
2018-12-05T04:18:12.867Z,5.50
2018-12-05T04:20:40.153Z,5.73
2018-12-05T04:23:09.456Z,6.47
2018-12-05T04:25:38.690Z,6.35
2018-12-05T04:28:07.954Z,6.50
2018-12-05T04:30:37.176Z,6.63
2018-12-05T04:33:06.481Z,6.00
2018-12-05T04:35:35.705Z,5.90
2018-12-05T04:38:04.957Z,6.27
2018-12-05T04:40:34.140Z,6.40
2018-12-05T04:43:03.416Z,5.83
2018-12-05T04:45:32.661Z,6.00
2018-12-05T04:48:01.919Z,5.67
2018-12-05T04:50:31.106Z,5.90
2018-12-05T04:53:00.411Z,7.50
2018-12-05T04:55:29.725Z,7.20
2018-12-05T04:57:59.097Z,6.30
2018-12-05T05:00:28.430Z,5.60
2018-12-05T05:02:57.679Z,6.30
2018-12-05T05:05:26.981Z,6.17
2018-12-05T05:07:56.265Z,5.67
2018-12-05T05:10:25.588Z,6.07
2018-12-05T05:12:54.813Z,5.97
2018-12-05T05:15:24.433Z,6.30
2018-12-05T05:17:53.609Z,6.40
2018-12-05T05:20:22.841Z,6.27
2018-12-05T05:22:52.142Z,6.50
2018-12-05T05:25:21.848Z,5.77
2018-12-05T05:27:50.788Z,7.10
2018-12-05T05:30:20.016Z,6.10
2018-12-05T05:32:53.024Z,5.73
2018-12-05T05:35:22.984Z,6.47
2018-12-05T05:37:52.597Z,6.03
2018-12-05T05:40:22.081Z,6.40
2018-12-05T05:42:51.394Z,6.33
2018-12-05T05:45:20.694Z,5.90
2018-12-05T05:47:50.129Z,5.63
2018-12-05T05:50:20.690Z,5.37
2018-12-05T05:52:49.169Z,5.90
2018-12-05T05:55:19.010Z,5.62
2018-12-05T05:57:48.218Z,5.70
2018-12-05T06:00:19.928Z,5.37
2018-12-05T06:02:49.210Z,5.77
2018-12-05T06:05:18.921Z,5.80
2018-12-05T06:07:48.155Z,5.60
2018-12-05T06:10:17.928Z,4.80
2018-12-05T06:12:47.144Z,5.60
2018-12-05T06:15:17.105Z,5.17
2018-12-05T06:17:46.333Z,5.93
2018-12-05T06:20:16.866Z,6.45
2018-12-05T06:22:46.137Z,6.63
2018-12-05T06:25:16.162Z,5.60
2018-12-05T06:27:45.412Z,5.47
2018-12-05T06:30:15.629Z,6.00
2018-12-05T06:32:45.663Z,6.20
2018-12-05T06:35:15.289Z,4.90
2018-12-05T06:37:44.714Z,4.90
2018-12-05T06:40:14.518Z,5.80
2018-12-05T06:42:43.865Z,6.33
2018-12-05T06:45:14.813Z,6.00
2018-12-05T06:47:44.057Z,6.00
2018-12-05T06:50:13.918Z,6.30
2018-12-05T06:52:43.692Z,5.30
2018-12-05T06:55:13.486Z,5.20
2018-12-05T06:57:42.941Z,5.33
2018-12-05T07:00:13.098Z,5.33
2018-12-05T07:02:42.394Z,5.20
2018-12-05T07:05:13.352Z,5.40
2018-12-05T07:07:42.586Z,5.70
2018-12-05T07:10:12.598Z,5.73
2018-12-05T07:12:41.857Z,6.73
2018-12-05T07:15:12.644Z,5.13
2018-12-05T07:17:41.887Z,5.30
2018-12-05T07:20:12.190Z,5.40
2018-12-05T07:22:41.440Z,5.83
2018-12-05T07:25:11.686Z,5.50
2018-12-05T07:27:40.969Z,4.80
2018-12-05T07:30:11.375Z,5.40
2018-12-05T07:32:40.779Z,4.90
2018-12-05T07:35:10.740Z,3.90
2018-12-05T07:37:39.958Z,5.87
2018-12-05T07:40:09.876Z,4.40
2018-12-05T07:42:39.180Z,5.63
2018-12-05T07:45:10.237Z,5.40
2018-12-05T07:47:39.501Z,4.60
2018-12-05T07:50:09.299Z,5.03
2018-12-05T07:52:38.521Z,4.60
2018-12-05T07:55:08.239Z,4.70
2018-12-05T07:57:37.952Z,4.33
2018-12-05T08:00:07.032Z,5.33
2018-12-05T08:02:36.351Z,4.20
2018-12-05T08:05:05.687Z,4.30
2018-12-05T08:07:34.889Z,4.63
2018-12-05T08:10:04.204Z,4.90
2018-12-05T08:12:33.407Z,5.28
2018-12-05T08:15:02.722Z,5.00
2018-12-05T08:17:31.942Z,5.30
2018-12-05T08:20:01.180Z,5.07
2018-12-05T08:22:30.418Z,5.10
2018-12-05T08:24:59.682Z,4.80
2018-12-05T08:27:28.946Z,5.30
2018-12-05T08:29:58.169Z,4.83
2018-12-05T08:32:27.369Z,5.40
2018-12-05T08:34:56.553Z,5.90
2018-12-05T08:37:25.733Z,5.90
2018-12-05T08:39:55.022Z,4.90
2018-12-05T08:42:24.353Z,6.67
2018-12-05T08:44:53.613Z,5.08
2018-12-05T08:47:22.886Z,6.57
2018-12-05T08:49:52.131Z,5.30
2018-12-05T08:52:21.513Z,5.00
2018-12-05T08:54:50.801Z,5.10
2018-12-05T08:57:20.439Z,6.00
2018-12-05T08:59:49.690Z,5.53
2018-12-05T09:02:19.102Z,5.20
2018-12-05T09:04:48.421Z,6.33
2018-12-05T09:07:17.777Z,5.37
2018-12-05T09:09:47.026Z,6.63
2018-12-05T09:12:16.253Z,5.93
2018-12-05T09:14:45.496Z,5.87
2018-12-05T09:17:14.878Z,7.30
2018-12-05T09:19:44.197Z,7.03
2018-12-05T09:22:13.470Z,6.50
2018-12-05T09:24:42.774Z,6.60
2018-12-05T09:27:12.018Z,5.67
2018-12-05T09:29:41.256Z,7.00
2018-12-05T09:32:11.001Z,6.80
2018-12-05T09:34:40.206Z,7.17
2018-12-05T09:37:09.915Z,6.57
2018-12-05T09:39:39.108Z,6.50
2018-12-05T09:42:09.255Z,7.47
2018-12-05T09:44:38.488Z,7.20
2018-12-05T09:47:08.051Z,7.83
2018-12-05T09:49:37.292Z,7.40
2018-12-05T09:52:07.333Z,7.72
2018-12-05T09:54:36.625Z,7.80
2018-12-05T09:57:06.140Z,7.80
2018-12-05T09:59:35.398Z,8.50
2018-12-05T10:02:04.665Z,7.43
2018-12-05T10:04:33.920Z,8.10
2018-12-05T10:07:03.174Z,7.30
2018-12-05T10:09:32.478Z,7.07
2018-12-05T10:12:01.726Z,8.13
2018-12-05T10:14:30.998Z,7.93
2018-12-05T10:17:00.304Z,7.93
2018-12-05T10:19:29.586Z,8.90
2018-12-05T10:21:58.780Z,8.10
2018-12-05T10:24:28.043Z,9.17
2018-12-05T10:26:57.326Z,8.20
2018-12-05T10:29:26.598Z,7.93
2018-12-05T10:31:55.873Z,7.70
2018-12-05T10:34:25.231Z,7.50
2018-12-05T10:36:54.498Z,7.72
2018-12-05T10:39:23.733Z,8.13
2018-12-05T10:41:53.066Z,7.77
2018-12-05T10:44:22.402Z,8.17
2018-12-05T10:46:51.709Z,8.30
2018-12-05T10:49:21.151Z,8.53
2018-12-05T10:51:50.471Z,8.53
2018-12-05T10:54:19.781Z,8.83
2018-12-05T10:56:49.139Z,8.40
2018-12-05T10:59:18.406Z,8.53
2018-12-05T11:01:54.195Z,8.45
2018-12-05T11:04:29.465Z,8.23
2018-12-05T11:07:04.647Z,9.00
2018-12-05T11:09:39.987Z,8.43
2018-12-05T11:12:15.224Z,7.60
2018-12-05T11:14:50.511Z,8.57
2018-12-05T11:17:25.738Z,9.35
2018-12-05T11:19:57.774Z,9.60
2018-12-05T11:22:32.340Z,7.77
2018-12-05T11:25:03.669Z,9.43
2018-12-05T11:27:32.973Z,8.30
2018-12-05T11:30:02.269Z,9.77
2018-12-05T11:32:31.494Z,8.43
2018-12-05T11:35:00.785Z,9.27
2018-12-05T11:37:30.130Z,8.77
2018-12-05T11:39:59.363Z,8.40
2018-12-05T11:42:28.645Z,8.50
2018-12-05T11:44:57.857Z,8.60
2018-12-05T11:47:27.108Z,8.17
2018-12-05T11:49:56.344Z,8.70
2018-12-05T11:52:25.659Z,8.70
2018-12-05T11:54:54.900Z,8.70
2018-12-05T11:57:24.201Z,8.77
2018-12-05T11:59:53.430Z,8.37
2018-12-05T12:02:22.786Z,8.70
2018-12-05T12:04:52.038Z,10.90
2018-12-05T12:07:21.353Z,8.80
2018-12-05T12:09:50.630Z,9.90
2018-12-05T12:12:25.330Z,10.13
2018-12-05T12:14:54.561Z,8.23
2018-12-05T12:17:24.003Z,9.60
2018-12-05T12:19:53.223Z,9.20
2018-12-05T12:22:22.458Z,9.67
2018-12-05T12:24:51.691Z,9.37
2018-12-05T12:27:20.927Z,9.10
2018-12-05T12:29:50.195Z,8.75
2018-12-05T12:32:19.473Z,9.00
2018-12-05T12:34:48.699Z,9.07
2018-12-05T12:37:17.921Z,8.50
2018-12-05T12:39:47.303Z,9.17
2018-12-05T12:42:16.592Z,9.27
2018-12-05T12:44:45.850Z,10.30
2018-12-05T12:47:15.168Z,9.57
2018-12-05T12:49:44.564Z,9.10
2018-12-05T12:52:13.881Z,9.10
2018-12-05T12:54:43.113Z,8.90
2018-12-05T12:57:12.367Z,9.15
2018-12-05T12:59:41.621Z,9.10
2018-12-05T13:02:12.130Z,9.65
2018-12-05T13:04:41.406Z,9.30
2018-12-05T13:07:10.954Z,9.50
2018-12-05T13:09:40.256Z,10.07
2018-12-05T13:12:10.106Z,9.28
2018-12-05T13:14:39.382Z,8.97
2018-12-05T13:17:08.958Z,9.73
2018-12-05T13:19:38.213Z,9.70
2018-12-05T13:22:07.679Z,8.47
2018-12-05T13:24:36.863Z,8.97
2018-12-05T13:27:06.111Z,8.97
2018-12-05T13:29:35.472Z,8.77
2018-12-05T13:32:05.766Z,8.73
2018-12-05T13:34:35.056Z,9.40
2018-12-05T13:37:04.354Z,9.93
2018-12-05T13:39:34.267Z,9.30
2018-12-05T13:42:03.769Z,8.50
2018-12-05T13:44:33.099Z,9.47
2018-12-05T13:47:02.295Z,8.83
2018-12-05T13:49:31.582Z,9.20
2018-12-05T13:52:00.886Z,9.80
2018-12-05T13:54:30.274Z,9.03
2018-12-05T13:56:59.555Z,9.63
2018-12-05T13:59:28.780Z,10.78
2018-12-05T14:01:58.045Z,9.20
2018-12-05T14:04:27.289Z,10.53
2018-12-05T14:06:56.549Z,9.87
2018-12-05T14:09:25.841Z,10.43
2018-12-05T14:11:55.145Z,9.80
2018-12-05T14:14:24.389Z,9.87
2018-12-05T14:16:53.637Z,9.40
2018-12-05T14:19:22.884Z,8.93
2018-12-05T14:21:52.135Z,9.90
2018-12-05T14:24:21.404Z,10.40
2018-12-05T14:26:50.671Z,9.15
2018-12-05T14:29:19.961Z,10.10
2018-12-05T14:31:49.354Z,10.20
2018-12-05T14:34:18.653Z,10.73
2018-12-05T14:36:47.908Z,11.47
2018-12-05T14:39:17.150Z,10.58
2018-12-05T14:41:46.384Z,10.80
2018-12-05T14:44:15.650Z,11.50
2018-12-05T14:46:44.969Z,9.67
2018-12-05T14:49:14.198Z,11.85
2018-12-05T14:51:43.430Z,10.60
2018-12-05T14:54:12.693Z,10.75
2018-12-05T14:56:42.010Z,10.53
2018-12-05T14:59:11.436Z,11.78
2018-12-05T15:01:40.731Z,10.90
2018-12-05T15:04:10.441Z,11.37
2018-12-05T15:06:39.702Z,11.60
2018-12-05T15:09:09.413Z,12.47
2018-12-05T15:11:38.715Z,11.20
2018-12-05T15:14:08.269Z,10.90
2018-12-05T15:16:37.500Z,10.93
2018-12-05T15:19:06.957Z,11.67
2018-12-05T15:21:36.221Z,11.93
2018-12-05T15:24:05.469Z,11.50
2018-12-05T15:26:34.735Z,12.33
2018-12-05T15:29:04.025Z,12.00
2018-12-05T15:31:33.308Z,11.17
2018-12-05T15:34:02.567Z,12.50
2018-12-05T15:36:31.870Z,11.63
2018-12-05T15:39:01.098Z,11.93
2018-12-05T15:41:30.306Z,11.53
2018-12-05T15:43:59.562Z,11.75
2018-12-05T15:46:28.968Z,11.43
2018-12-05T15:48:58.233Z,11.13
2018-12-05T15:51:27.600Z,11.83
2018-12-05T15:53:56.818Z,10.73
2018-12-05T15:56:26.094Z,11.50
2018-12-05T15:58:55.350Z,11.10
2018-12-05T16:01:24.631Z,11.47
2018-12-05T16:03:53.963Z,11.63
2018-12-05T16:06:23.194Z,12.17
2018-12-05T16:08:52.406Z,11.50
2018-12-05T16:11:22.071Z,10.93
2018-12-05T16:13:51.433Z,12.50
2018-12-05T16:16:20.729Z,13.03
2018-12-05T16:18:50.032Z,12.80
2018-12-05T16:21:19.336Z,11.20
2018-12-05T16:23:49.082Z,12.00
2018-12-05T16:26:18.395Z,11.90
2018-12-05T16:28:47.598Z,12.47
2018-12-05T16:31:16.859Z,11.53
2018-12-05T16:33:46.842Z,12.47
2018-12-05T16:36:16.746Z,13.03
2018-12-05T16:38:46.002Z,13.05
2018-12-05T16:41:15.549Z,10.93
2018-12-05T16:43:44.983Z,11.43
2018-12-05T16:46:14.630Z,11.87
2018-12-05T16:48:44.013Z,12.20
2018-12-05T16:51:13.308Z,12.90
2018-12-05T16:53:43.279Z,13.03
2018-12-05T16:56:12.975Z,13.47
2018-12-05T16:58:42.270Z,11.77
2018-12-05T17:01:12.063Z,12.67
2018-12-05T17:03:41.355Z,12.60
2018-12-05T17:06:10.626Z,12.57
2018-12-05T17:08:39.884Z,12.87
2018-12-05T17:11:09.257Z,12.67
2018-12-05T17:13:42.138Z,14.00
2018-12-05T17:16:18.025Z,13.60
2018-12-05T17:18:41.246Z,12.37
2018-12-05T17:21:10.752Z,12.50
2018-12-05T17:23:40.981Z,11.65
2018-12-05T17:26:10.217Z,13.40
2018-12-05T17:28:39.487Z,12.53
2018-12-05T17:31:08.859Z,13.30
2018-12-05T17:33:38.073Z,12.53
2018-12-05T17:36:07.335Z,12.63
2018-12-05T17:38:36.673Z,12.20
2018-12-05T17:41:06.181Z,13.10
2018-12-05T17:43:35.473Z,13.28
2018-12-05T17:46:04.851Z,12.03
2018-12-05T17:48:34.081Z,13.57
2018-12-05T17:51:03.377Z,14.43
2018-12-05T17:53:32.624Z,12.87
2018-12-05T17:56:01.954Z,11.97
2018-12-05T17:58:32.069Z,13.30
2018-12-05T18:01:03.051Z,13.00
2018-12-05T18:03:35.330Z,13.00
2018-12-05T18:06:04.707Z,13.20
2018-12-05T18:08:33.946Z,11.33
2018-12-05T18:11:03.315Z,11.57
2018-12-05T18:13:33.566Z,11.30
2018-12-05T18:16:02.858Z,11.95
2018-12-05T18:18:32.112Z,11.43
2018-12-05T18:21:01.344Z,12.70
2018-12-05T18:23:30.578Z,13.23
2018-12-05T18:26:00.202Z,12.60
2018-12-05T18:28:29.468Z,13.10
2018-12-05T18:30:58.738Z,12.13
2018-12-05T18:33:28.936Z,11.78
2018-12-05T18:35:58.164Z,13.30
2018-12-05T18:38:27.531Z,13.60
2018-12-05T18:40:56.821Z,12.40
2018-12-05T18:43:26.033Z,12.13
2018-12-05T18:45:55.345Z,13.07
2018-12-05T18:48:24.706Z,12.83
2018-12-05T18:50:54.072Z,14.20
2018-12-05T18:53:23.302Z,13.60
2018-12-05T18:55:52.632Z,12.60
2018-12-05T18:58:21.898Z,12.03
2018-12-05T19:00:51.318Z,12.57
2018-12-05T19:03:20.636Z,12.83
2018-12-05T19:05:49.930Z,12.37
2018-12-05T19:08:19.217Z,11.87
2018-12-05T19:10:48.550Z,11.30
2018-12-05T19:13:18.256Z,11.37
2018-12-05T19:15:47.549Z,11.23
2018-12-05T19:18:17.368Z,12.33
2018-12-05T19:20:46.604Z,11.83
2018-12-05T19:23:16.369Z,11.40
2018-12-05T19:25:46.252Z,12.20
2018-12-05T19:28:15.711Z,11.83
2018-12-05T19:30:45.107Z,11.40
2018-12-05T19:33:14.779Z,11.53
2018-12-05T19:35:44.054Z,12.90
2018-12-05T19:38:14.074Z,12.07
2018-12-05T19:40:43.433Z,11.68
2018-12-05T19:43:13.086Z,11.17
2018-12-05T19:45:42.336Z,11.35
2018-12-05T19:48:13.118Z,10.43
2018-12-05T19:50:46.289Z,11.57
2018-12-05T19:53:15.942Z,11.63
2018-12-05T19:55:45.153Z,13.47
2018-12-05T19:58:14.963Z,12.15
2018-12-05T20:00:44.272Z,11.55
2018-12-05T20:03:13.973Z,11.20
2018-12-05T20:05:43.216Z,12.10
2018-12-05T20:08:12.501Z,12.10
2018-12-05T20:10:41.891Z,12.07
2018-12-05T20:13:11.246Z,12.37
2018-12-05T20:15:40.560Z,11.88
2018-12-05T20:18:09.893Z,11.27
2018-12-05T20:20:39.150Z,11.60
2018-12-05T20:23:08.510Z,10.90
2018-12-05T20:25:37.777Z,12.30
2018-12-05T20:28:07.074Z,11.70
2018-12-05T20:30:36.342Z,12.10
2018-12-05T20:33:05.625Z,12.23
2018-12-05T20:35:35.020Z,12.67
2018-12-05T20:38:05.077Z,13.13
2018-12-05T20:40:34.375Z,11.67
2018-12-05T20:43:03.864Z,11.90
2018-12-05T20:45:33.110Z,13.83
2018-12-05T20:48:02.367Z,12.30
2018-12-05T20:50:31.818Z,11.60
2018-12-05T20:53:01.148Z,12.70
2018-12-05T20:55:30.521Z,11.70
2018-12-05T20:57:59.735Z,12.60
2018-12-05T21:00:30.079Z,12.40
2018-12-05T21:02:59.420Z,11.90
2018-12-05T21:05:28.706Z,12.03
2018-12-05T21:07:58.097Z,12.50
2018-12-05T21:10:27.331Z,11.40
2018-12-05T21:12:56.601Z,11.87
2018-12-05T21:15:26.289Z,11.53
2018-12-05T21:17:55.643Z,11.90
2018-12-05T21:20:24.952Z,12.40
2018-12-05T21:22:54.221Z,12.70
2018-12-05T21:25:23.470Z,12.47
2018-12-05T21:27:52.729Z,12.65
2018-12-05T21:30:22.157Z,12.58
2018-12-05T21:32:51.554Z,12.50
2018-12-05T21:35:20.851Z,12.40
2018-12-05T21:37:50.138Z,12.07
2018-12-05T21:40:20.071Z,12.70
2018-12-05T21:42:49.306Z,11.00
2018-12-05T21:45:18.673Z,11.97
2018-12-05T21:47:48.026Z,11.03
2018-12-05T21:50:17.290Z,11.12
2018-12-05T21:52:46.488Z,12.87
2018-12-05T21:55:16.740Z,12.40
2018-12-05T21:57:45.971Z,11.97
2018-12-05T22:00:17.742Z,11.00
2018-12-05T22:02:47.022Z,11.83
2018-12-05T22:05:17.294Z,12.47
2018-12-05T22:07:46.596Z,11.80
2018-12-05T22:10:16.783Z,11.40
2018-12-05T22:12:46.143Z,10.47
2018-12-05T22:15:15.992Z,11.60
2018-12-05T22:17:45.233Z,11.10
2018-12-05T22:20:15.519Z,11.43
2018-12-05T22:23:14.816Z,11.93
2018-12-05T22:25:44.121Z,11.80
2018-12-05T22:28:13.815Z,11.40
2018-12-05T22:30:43.347Z,11.53
2018-12-05T22:33:12.617Z,11.47
2018-12-05T22:35:41.919Z,11.00
2018-12-05T22:38:11.335Z,13.17
2018-12-05T22:40:41.781Z,12.03
2018-12-05T22:43:11.165Z,11.90
2018-12-05T22:45:40.406Z,12.30
2018-12-05T22:48:09.680Z,11.07
2018-12-05T22:50:38.932Z,12.70
2018-12-05T22:53:08.192Z,11.30
2018-12-05T22:55:37.808Z,12.27
2018-12-05T22:58:07.280Z,11.40
2018-12-05T23:00:36.758Z,11.70
2018-12-05T23:03:06.106Z,12.27
2018-12-05T23:05:35.439Z,10.93
2018-12-05T23:08:04.673Z,10.70
2018-12-05T23:10:33.971Z,12.60
2018-12-05T23:13:03.218Z,11.37
2018-12-05T23:15:32.525Z,10.73
2018-12-05T23:18:01.742Z,11.90
2018-12-05T23:20:30.956Z,10.37
2018-12-05T23:23:00.247Z,10.63
2018-12-05T23:25:29.607Z,10.70
2018-12-05T23:27:58.850Z,12.20
2018-12-05T23:30:28.163Z,10.35
2018-12-05T23:32:57.452Z,10.83
2018-12-05T23:35:27.955Z,10.37
2018-12-05T23:37:57.254Z,10.23
2018-12-05T23:40:26.502Z,10.77
2018-12-05T23:42:55.771Z,11.00
2018-12-05T23:45:25.084Z,10.33
2018-12-05T23:47:54.363Z,11.07
2018-12-05T23:50:23.613Z,10.53
2018-12-05T23:52:52.940Z,11.08
2018-12-05T23:55:22.178Z,9.90
2018-12-05T23:57:51.432Z,11.30
